sensor_id;sensor_type;location;lat;lon;timestamp;P1;durP1;ratioP1;P2;durP2;ratioP2
1699;SDS011;847;48.058;7.810;2024-02-04T00:00:55;2.97;;;2.63;;
1699;SDS011;847;48.058;7.810;2024-02-04T00:03:22;3.50;;;2.67;;
1699;SDS011;847;48.058;7.810;2024-02-04T00:05:49;2.90;;;2.43;;
1699;SDS011;847;48.058;7.810;2024-02-04T00:08:16;3.30;;;3.00;;
1699;SDS011;847;48.058;7.810;2024-02-04T00:10:43;5.07;;;3.83;;
1699;SDS011;847;48.058;7.810;2024-02-04T00:13:10;4.00;;;3.33;;
1699;SDS011;847;48.058;7.810;2024-02-04T00:15:38;3.17;;;2.87;;
1699;SDS011;847;48.058;7.810;2024-02-04T00:18:04;3.13;;;2.83;;
1699;SDS011;847;48.058;7.810;2024-02-04T00:20:31;2.87;;;2.60;;
1699;SDS011;847;48.058;7.810;2024-02-04T00:22:58;3.03;;;2.73;;
1699;SDS011;847;48.058;7.810;2024-02-04T00:25:25;2.70;;;2.50;;
1699;SDS011;847;48.058;7.810;2024-02-04T00:27:54;7.50;;;5.00;;
1699;SDS011;847;48.058;7.810;2024-02-04T00:30:20;9.00;;;6.60;;
1699;SDS011;847;48.058;7.810;2024-02-04T00:32:48;4.60;;;4.10;;
1699;SDS011;847;48.058;7.810;2024-02-04T00:35:15;3.57;;;3.27;;
1699;SDS011;847;48.058;7.810;2024-02-04T00:37:42;4.60;;;4.10;;
1699;SDS011;847;48.058;7.810;2024-02-04T00:40:09;2.80;;;2.60;;
1699;SDS011;847;48.058;7.810;2024-02-04T00:42:37;3.10;;;2.77;;
1699;SDS011;847;48.058;7.810;2024-02-04T00:45:04;3.00;;;2.70;;
1699;SDS011;847;48.058;7.810;2024-02-04T00:47:31;2.83;;;2.63;;
1699;SDS011;847;48.058;7.810;2024-02-04T00:49:59;5.13;;;4.10;;
1699;SDS011;847;48.058;7.810;2024-02-04T00:52:25;12.20;;;10.00;;
1699;SDS011;847;48.058;7.810;2024-02-04T00:54:52;16.30;;;13.77;;
1699;SDS011;847;48.058;7.810;2024-02-04T00:57:19;3.80;;;3.50;;
1699;SDS011;847;48.058;7.810;2024-02-04T00:59:45;3.20;;;2.73;;
1699;SDS011;847;48.058;7.810;2024-02-04T01:02:12;2.57;;;2.37;;
1699;SDS011;847;48.058;7.810;2024-02-04T01:04:39;2.40;;;2.20;;
1699;SDS011;847;48.058;7.810;2024-02-04T01:07:07;2.40;;;2.20;;
1699;SDS011;847;48.058;7.810;2024-02-04T01:09:34;5.73;;;3.20;;
1699;SDS011;847;48.058;7.810;2024-02-04T01:12:01;3.20;;;2.80;;
1699;SDS011;847;48.058;7.810;2024-02-04T01:14:28;2.43;;;2.20;;
1699;SDS011;847;48.058;7.810;2024-02-04T01:16:55;2.27;;;2.07;;
1699;SDS011;847;48.058;7.810;2024-02-04T01:19:21;2.13;;;1.80;;
1699;SDS011;847;48.058;7.810;2024-02-04T01:21:48;2.10;;;1.90;;
1699;SDS011;847;48.058;7.810;2024-02-04T01:24:16;2.10;;;1.50;;
1699;SDS011;847;48.058;7.810;2024-02-04T01:26:43;3.50;;;1.80;;
1699;SDS011;847;48.058;7.810;2024-02-04T01:29:09;1.90;;;1.70;;
1699;SDS011;847;48.058;7.810;2024-02-04T01:31:36;1.63;;;1.50;;
1699;SDS011;847;48.058;7.810;2024-02-04T01:34:03;1.77;;;1.67;;
1699;SDS011;847;48.058;7.810;2024-02-04T01:36:30;3.63;;;1.60;;
1699;SDS011;847;48.058;7.810;2024-02-04T01:38:57;2.20;;;1.60;;
1699;SDS011;847;48.058;7.810;2024-02-04T01:41:25;1.63;;;1.23;;
1699;SDS011;847;48.058;7.810;2024-02-04T01:43:52;1.47;;;1.37;;
1699;SDS011;847;48.058;7.810;2024-02-04T01:46:20;2.30;;;1.77;;
1699;SDS011;847;48.058;7.810;2024-02-04T01:48:47;1.83;;;1.60;;
1699;SDS011;847;48.058;7.810;2024-02-04T01:51:14;3.50;;;1.43;;
1699;SDS011;847;48.058;7.810;2024-02-04T01:53:46;1.60;;;1.50;;
1699;SDS011;847;48.058;7.810;2024-02-04T01:56:13;2.47;;;1.80;;
1699;SDS011;847;48.058;7.810;2024-02-04T01:58:42;1.50;;;1.40;;
1699;SDS011;847;48.058;7.810;2024-02-04T02:01:09;2.30;;;1.47;;
1699;SDS011;847;48.058;7.810;2024-02-04T02:03:36;1.77;;;1.60;;
1699;SDS011;847;48.058;7.810;2024-02-04T02:06:05;3.13;;;1.50;;
1699;SDS011;847;48.058;7.810;2024-02-04T02:08:32;1.27;;;1.17;;
1699;SDS011;847;48.058;7.810;2024-02-04T02:11:02;2.00;;;1.80;;
1699;SDS011;847;48.058;7.810;2024-02-04T02:13:34;1.60;;;1.50;;
1699;SDS011;847;48.058;7.810;2024-02-04T02:16:04;1.60;;;1.30;;
1699;SDS011;847;48.058;7.810;2024-02-04T02:18:35;2.00;;;1.87;;
1699;SDS011;847;48.058;7.810;2024-02-04T02:21:18;2.07;;;1.87;;
1699;SDS011;847;48.058;7.810;2024-02-04T02:24:03;2.20;;;2.00;;
1699;SDS011;847;48.058;7.810;2024-02-04T02:26:35;2.20;;;1.80;;
1699;SDS011;847;48.058;7.810;2024-02-04T02:29:03;2.67;;;2.07;;
1699;SDS011;847;48.058;7.810;2024-02-04T02:31:30;1.70;;;1.60;;
1699;SDS011;847;48.058;7.810;2024-02-04T02:33:57;2.73;;;2.00;;
1699;SDS011;847;48.058;7.810;2024-02-04T02:36:24;1.53;;;1.43;;
1699;SDS011;847;48.058;7.810;2024-02-04T02:38:57;1.67;;;1.57;;
1699;SDS011;847;48.058;7.810;2024-02-04T02:41:30;1.73;;;1.63;;
1699;SDS011;847;48.058;7.810;2024-02-04T02:43:59;1.50;;;1.40;;
1699;SDS011;847;48.058;7.810;2024-02-04T02:46:27;2.03;;;1.80;;
1699;SDS011;847;48.058;7.810;2024-02-04T02:48:54;2.07;;;1.63;;
1699;SDS011;847;48.058;7.810;2024-02-04T02:51:21;2.37;;;1.57;;
1699;SDS011;847;48.058;7.810;2024-02-04T02:53:47;1.93;;;1.60;;
1699;SDS011;847;48.058;7.810;2024-02-04T02:56:14;2.00;;;1.80;;
1699;SDS011;847;48.058;7.810;2024-02-04T02:58:41;1.70;;;1.60;;
1699;SDS011;847;48.058;7.810;2024-02-04T03:01:09;1.63;;;1.50;;
1699;SDS011;847;48.058;7.810;2024-02-04T03:03:36;1.80;;;1.70;;
1699;SDS011;847;48.058;7.810;2024-02-04T03:06:02;1.70;;;1.60;;
1699;SDS011;847;48.058;7.810;2024-02-04T03:08:33;1.90;;;1.70;;
1699;SDS011;847;48.058;7.810;2024-02-04T03:10:59;2.00;;;1.80;;
1699;SDS011;847;48.058;7.810;2024-02-04T03:13:26;1.90;;;1.80;;
1699;SDS011;847;48.058;7.810;2024-02-04T03:15:55;2.00;;;1.80;;
1699;SDS011;847;48.058;7.810;2024-02-04T03:18:23;1.73;;;1.63;;
1699;SDS011;847;48.058;7.810;2024-02-04T03:20:50;1.90;;;1.80;;
1699;SDS011;847;48.058;7.810;2024-02-04T03:23:17;1.93;;;1.73;;
1699;SDS011;847;48.058;7.810;2024-02-04T03:25:44;2.97;;;1.70;;
1699;SDS011;847;48.058;7.810;2024-02-04T03:28:11;2.33;;;2.10;;
1699;SDS011;847;48.058;7.810;2024-02-04T03:30:38;2.20;;;2.00;;
1699;SDS011;847;48.058;7.810;2024-02-04T03:33:04;2.73;;;2.50;;
1699;SDS011;847;48.058;7.810;2024-02-04T03:35:32;2.50;;;2.30;;
1699;SDS011;847;48.058;7.810;2024-02-04T03:38:01;2.47;;;2.27;;
1699;SDS011;847;48.058;7.810;2024-02-04T03:40:28;3.93;;;2.37;;
1699;SDS011;847;48.058;7.810;2024-02-04T03:42:54;2.13;;;1.93;;
1699;SDS011;847;48.058;7.810;2024-02-04T03:45:21;2.60;;;2.30;;
1699;SDS011;847;48.058;7.810;2024-02-04T03:47:48;2.60;;;2.40;;
1699;SDS011;847;48.058;7.810;2024-02-04T03:50:15;2.27;;;2.07;;
1699;SDS011;847;48.058;7.810;2024-02-04T03:52:43;2.80;;;2.00;;
1699;SDS011;847;48.058;7.810;2024-02-04T03:55:09;2.77;;;1.90;;
1699;SDS011;847;48.058;7.810;2024-02-04T03:57:36;2.10;;;1.90;;
1699;SDS011;847;48.058;7.810;2024-02-04T04:00:03;2.13;;;1.90;;
1699;SDS011;847;48.058;7.810;2024-02-04T04:02:31;1.90;;;1.80;;
1699;SDS011;847;48.058;7.810;2024-02-04T04:04:58;2.00;;;1.80;;
1699;SDS011;847;48.058;7.810;2024-02-04T04:07:25;2.40;;;1.93;;
1699;SDS011;847;48.058;7.810;2024-02-04T04:09:53;2.83;;;1.70;;
1699;SDS011;847;48.058;7.810;2024-02-04T04:12:19;1.83;;;1.73;;
1699;SDS011;847;48.058;7.810;2024-02-04T04:14:46;1.83;;;1.67;;
1699;SDS011;847;48.058;7.810;2024-02-04T04:17:13;2.80;;;1.70;;
1699;SDS011;847;48.058;7.810;2024-02-04T04:19:40;1.40;;;1.30;;
1699;SDS011;847;48.058;7.810;2024-02-04T04:22:06;1.67;;;1.57;;
1699;SDS011;847;48.058;7.810;2024-02-04T04:24:33;1.43;;;1.33;;
1699;SDS011;847;48.058;7.810;2024-02-04T04:27:01;1.20;;;1.10;;
1699;SDS011;847;48.058;7.810;2024-02-04T04:29:28;2.00;;;1.40;;
1699;SDS011;847;48.058;7.810;2024-02-04T04:31:55;2.00;;;1.40;;
1699;SDS011;847;48.058;7.810;2024-02-04T04:34:22;1.17;;;1.07;;
1699;SDS011;847;48.058;7.810;2024-02-04T04:36:48;1.00;;;0.90;;
1699;SDS011;847;48.058;7.810;2024-02-04T04:39:15;1.50;;;1.07;;
1699;SDS011;847;48.058;7.810;2024-02-04T04:41:43;1.30;;;1.20;;
1699;SDS011;847;48.058;7.810;2024-02-04T04:44:12;1.40;;;1.10;;
1699;SDS011;847;48.058;7.810;2024-02-04T04:46:38;0.73;;;0.73;;
1699;SDS011;847;48.058;7.810;2024-02-04T04:49:05;0.80;;;0.80;;
1699;SDS011;847;48.058;7.810;2024-02-04T04:51:32;1.80;;;1.10;;
1699;SDS011;847;48.058;7.810;2024-02-04T04:53:59;1.23;;;1.10;;
1699;SDS011;847;48.058;7.810;2024-02-04T04:56:26;1.00;;;0.90;;
1699;SDS011;847;48.058;7.810;2024-02-04T04:58:52;0.93;;;0.63;;
1699;SDS011;847;48.058;7.810;2024-02-04T05:01:20;1.60;;;0.83;;
1699;SDS011;847;48.058;7.810;2024-02-04T05:03:47;1.37;;;0.80;;
1699;SDS011;847;48.058;7.810;2024-02-04T05:06:14;1.00;;;0.90;;
1699;SDS011;847;48.058;7.810;2024-02-04T05:08:41;1.37;;;0.90;;
1699;SDS011;847;48.058;7.810;2024-02-04T05:11:07;1.03;;;1.00;;
1699;SDS011;847;48.058;7.810;2024-02-04T05:13:34;0.93;;;0.83;;
1699;SDS011;847;48.058;7.810;2024-02-04T05:16:04;1.30;;;1.00;;
1699;SDS011;847;48.058;7.810;2024-02-04T05:18:32;0.83;;;0.83;;
1699;SDS011;847;48.058;7.810;2024-02-04T05:21:00;1.03;;;0.60;;
1699;SDS011;847;48.058;7.810;2024-02-04T05:23:27;0.50;;;0.50;;
1699;SDS011;847;48.058;7.810;2024-02-04T05:25:54;0.73;;;0.70;;
1699;SDS011;847;48.058;7.810;2024-02-04T05:28:20;0.80;;;0.80;;
1699;SDS011;847;48.058;7.810;2024-02-04T05:30:47;1.43;;;0.77;;
1699;SDS011;847;48.058;7.810;2024-02-04T05:33:14;0.80;;;0.70;;
1699;SDS011;847;48.058;7.810;2024-02-04T05:35:42;0.70;;;0.70;;
1699;SDS011;847;48.058;7.810;2024-02-04T05:38:09;1.93;;;0.70;;
1699;SDS011;847;48.058;7.810;2024-02-04T05:40:35;0.83;;;0.83;;
1699;SDS011;847;48.058;7.810;2024-02-04T05:43:02;0.93;;;0.80;;
1699;SDS011;847;48.058;7.810;2024-02-04T05:45:31;0.80;;;0.70;;
1699;SDS011;847;48.058;7.810;2024-02-04T05:47:58;1.33;;;0.90;;
1699;SDS011;847;48.058;7.810;2024-02-04T05:50:25;1.00;;;0.87;;
1699;SDS011;847;48.058;7.810;2024-02-04T05:52:53;0.90;;;0.80;;
1699;SDS011;847;48.058;7.810;2024-02-04T05:55:20;0.93;;;0.70;;
1699;SDS011;847;48.058;7.810;2024-02-04T05:57:47;0.80;;;0.70;;
1699;SDS011;847;48.058;7.810;2024-02-04T06:00:14;1.10;;;1.00;;
1699;SDS011;847;48.058;7.810;2024-02-04T06:02:41;1.00;;;0.90;;
1699;SDS011;847;48.058;7.810;2024-02-04T06:05:08;1.00;;;0.77;;
1699;SDS011;847;48.058;7.810;2024-02-04T06:07:35;1.40;;;1.13;;
1699;SDS011;847;48.058;7.810;2024-02-04T06:10:03;1.13;;;1.03;;
1699;SDS011;847;48.058;7.810;2024-02-04T06:12:31;3.43;;;0.70;;
1699;SDS011;847;48.058;7.810;2024-02-04T06:14:58;0.70;;;0.67;;
1699;SDS011;847;48.058;7.810;2024-02-04T06:17:24;1.43;;;0.60;;
1699;SDS011;847;48.058;7.810;2024-02-04T06:19:51;1.33;;;0.90;;
1699;SDS011;847;48.058;7.810;2024-02-04T06:22:18;0.80;;;0.70;;
1699;SDS011;847;48.058;7.810;2024-02-04T06:24:45;0.70;;;0.57;;
1699;SDS011;847;48.058;7.810;2024-02-04T06:27:13;1.50;;;0.83;;
1699;SDS011;847;48.058;7.810;2024-02-04T06:29:40;0.70;;;0.70;;
1699;SDS011;847;48.058;7.810;2024-02-04T06:32:06;1.03;;;0.93;;
1699;SDS011;847;48.058;7.810;2024-02-04T06:34:33;0.83;;;0.80;;
1699;SDS011;847;48.058;7.810;2024-02-04T06:37:00;0.57;;;0.50;;
1699;SDS011;847;48.058;7.810;2024-02-04T06:39:26;0.50;;;0.50;;
1699;SDS011;847;48.058;7.810;2024-02-04T06:41:53;2.07;;;1.00;;
1699;SDS011;847;48.058;7.810;2024-02-04T06:44:21;0.57;;;0.53;;
1699;SDS011;847;48.058;7.810;2024-02-04T06:46:48;0.80;;;0.67;;
1699;SDS011;847;48.058;7.810;2024-02-04T06:49:14;0.83;;;0.80;;
1699;SDS011;847;48.058;7.810;2024-02-04T06:51:43;1.13;;;0.90;;
1699;SDS011;847;48.058;7.810;2024-02-04T06:54:10;0.80;;;0.80;;
1699;SDS011;847;48.058;7.810;2024-02-04T06:56:36;0.80;;;0.80;;
1699;SDS011;847;48.058;7.810;2024-02-04T06:59:03;0.80;;;0.80;;
1699;SDS011;847;48.058;7.810;2024-02-04T07:01:31;0.70;;;0.70;;
1699;SDS011;847;48.058;7.810;2024-02-04T07:03:58;0.70;;;0.67;;
1699;SDS011;847;48.058;7.810;2024-02-04T07:06:25;0.90;;;0.83;;
1699;SDS011;847;48.058;7.810;2024-02-04T07:08:52;0.93;;;0.60;;
1699;SDS011;847;48.058;7.810;2024-02-04T07:11:18;0.70;;;0.70;;
1699;SDS011;847;48.058;7.810;2024-02-04T07:13:45;0.80;;;0.77;;
1699;SDS011;847;48.058;7.810;2024-02-04T07:16:12;0.70;;;0.70;;
1699;SDS011;847;48.058;7.810;2024-02-04T07:18:40;0.70;;;0.70;;
1699;SDS011;847;48.058;7.810;2024-02-04T07:21:07;0.97;;;0.97;;
1699;SDS011;847;48.058;7.810;2024-02-04T07:23:33;1.30;;;0.70;;
1699;SDS011;847;48.058;7.810;2024-02-04T07:26:00;0.60;;;0.60;;
1699;SDS011;847;48.058;7.810;2024-02-04T07:28:27;0.70;;;0.70;;
1699;SDS011;847;48.058;7.810;2024-02-04T07:30:53;0.90;;;0.67;;
1699;SDS011;847;48.058;7.810;2024-02-04T07:33:20;1.03;;;0.53;;
1699;SDS011;847;48.058;7.810;2024-02-04T07:35:48;0.70;;;0.70;;
1699;SDS011;847;48.058;7.810;2024-02-04T07:38:15;0.67;;;0.57;;
1699;SDS011;847;48.058;7.810;2024-02-04T07:40:41;1.47;;;0.60;;
1699;SDS011;847;48.058;7.810;2024-02-04T07:43:08;0.50;;;0.50;;
1699;SDS011;847;48.058;7.810;2024-02-04T07:45:35;1.23;;;1.13;;
1699;SDS011;847;48.058;7.810;2024-02-04T07:48:03;1.53;;;1.43;;
1699;SDS011;847;48.058;7.810;2024-02-04T07:50:30;2.90;;;1.23;;
1699;SDS011;847;48.058;7.810;2024-02-04T07:52:58;0.80;;;0.80;;
1699;SDS011;847;48.058;7.810;2024-02-04T07:55:24;1.40;;;1.03;;
1699;SDS011;847;48.058;7.810;2024-02-04T07:57:51;0.60;;;0.60;;
1699;SDS011;847;48.058;7.810;2024-02-04T08:00:18;0.70;;;0.57;;
1699;SDS011;847;48.058;7.810;2024-02-04T08:02:45;0.77;;;0.50;;
1699;SDS011;847;48.058;7.810;2024-02-04T08:05:12;0.60;;;0.60;;
1699;SDS011;847;48.058;7.810;2024-02-04T08:07:38;0.57;;;0.50;;
1699;SDS011;847;48.058;7.810;2024-02-04T08:10:08;0.50;;;0.43;;
1699;SDS011;847;48.058;7.810;2024-02-04T08:12:35;0.50;;;0.40;;
1699;SDS011;847;48.058;7.810;2024-02-04T08:15:01;0.60;;;0.60;;
1699;SDS011;847;48.058;7.810;2024-02-04T08:17:29;0.50;;;0.50;;
1699;SDS011;847;48.058;7.810;2024-02-04T08:19:57;0.90;;;0.60;;
1699;SDS011;847;48.058;7.810;2024-02-04T08:22:23;0.50;;;0.40;;
1699;SDS011;847;48.058;7.810;2024-02-04T08:24:52;0.60;;;0.40;;
1699;SDS011;847;48.058;7.810;2024-02-04T08:27:20;0.83;;;0.73;;
1699;SDS011;847;48.058;7.810;2024-02-04T08:29:47;1.40;;;1.03;;
1699;SDS011;847;48.058;7.810;2024-02-04T08:32:13;6.00;;;4.30;;
1699;SDS011;847;48.058;7.810;2024-02-04T08:34:40;1.60;;;1.50;;
1699;SDS011;847;48.058;7.810;2024-02-04T08:37:16;2.47;;;2.27;;
1699;SDS011;847;48.058;7.810;2024-02-04T08:39:46;4.83;;;3.17;;
1699;SDS011;847;48.058;7.810;2024-02-04T08:42:12;5.23;;;3.40;;
1699;SDS011;847;48.058;7.810;2024-02-04T08:44:40;8.37;;;6.13;;
1699;SDS011;847;48.058;7.810;2024-02-04T08:47:07;3.97;;;2.53;;
1699;SDS011;847;48.058;7.810;2024-02-04T08:49:35;1.80;;;1.43;;
1699;SDS011;847;48.058;7.810;2024-02-04T08:52:02;2.70;;;2.50;;
1699;SDS011;847;48.058;7.810;2024-02-04T08:54:29;2.63;;;2.43;;
1699;SDS011;847;48.058;7.810;2024-02-04T08:56:56;6.87;;;3.30;;
1699;SDS011;847;48.058;7.810;2024-02-04T08:59:22;2.57;;;2.37;;
1699;SDS011;847;48.058;7.810;2024-02-04T09:01:50;1.10;;;1.10;;
1699;SDS011;847;48.058;7.810;2024-02-04T09:04:17;0.80;;;0.80;;
1699;SDS011;847;48.058;7.810;2024-02-04T09:06:44;1.43;;;1.33;;
1699;SDS011;847;48.058;7.810;2024-02-04T09:09:11;1.60;;;1.50;;
1699;SDS011;847;48.058;7.810;2024-02-04T09:11:37;1.20;;;1.10;;
1699;SDS011;847;48.058;7.810;2024-02-04T09:14:04;2.00;;;1.90;;
1699;SDS011;847;48.058;7.810;2024-02-04T09:16:32;1.27;;;1.20;;
1699;SDS011;847;48.058;7.810;2024-02-04T09:19:00;1.30;;;1.20;;
1699;SDS011;847;48.058;7.810;2024-02-04T09:21:27;0.70;;;0.70;;
1699;SDS011;847;48.058;7.810;2024-02-04T09:23:53;1.33;;;1.10;;
1699;SDS011;847;48.058;7.810;2024-02-04T09:26:25;0.70;;;0.70;;
1699;SDS011;847;48.058;7.810;2024-02-04T09:29:10;1.23;;;0.97;;
1699;SDS011;847;48.058;7.810;2024-02-04T09:31:37;0.60;;;0.60;;
1699;SDS011;847;48.058;7.810;2024-02-04T09:34:05;1.07;;;0.70;;
1699;SDS011;847;48.058;7.810;2024-02-04T09:36:31;1.00;;;0.90;;
1699;SDS011;847;48.058;7.810;2024-02-04T09:38:58;3.20;;;1.50;;
1699;SDS011;847;48.058;7.810;2024-02-04T09:41:25;1.57;;;0.80;;
1699;SDS011;847;48.058;7.810;2024-02-04T09:43:52;1.40;;;0.60;;
1699;SDS011;847;48.058;7.810;2024-02-04T09:46:19;0.70;;;0.70;;
1699;SDS011;847;48.058;7.810;2024-02-04T09:48:46;0.73;;;0.70;;
1699;SDS011;847;48.058;7.810;2024-02-04T09:51:16;0.70;;;0.60;;
1699;SDS011;847;48.058;7.810;2024-02-04T09:53:43;1.00;;;0.70;;
1699;SDS011;847;48.058;7.810;2024-02-04T09:56:11;1.93;;;0.80;;
1699;SDS011;847;48.058;7.810;2024-02-04T09:58:38;0.60;;;0.60;;
1699;SDS011;847;48.058;7.810;2024-02-04T10:01:05;0.73;;;0.70;;
1699;SDS011;847;48.058;7.810;2024-02-04T10:03:33;0.80;;;0.70;;
1699;SDS011;847;48.058;7.810;2024-02-04T10:06:00;1.83;;;1.00;;
1699;SDS011;847;48.058;7.810;2024-02-04T10:08:28;0.60;;;0.60;;
1699;SDS011;847;48.058;7.810;2024-02-04T10:10:55;0.80;;;0.73;;
1699;SDS011;847;48.058;7.810;2024-02-04T10:13:22;1.00;;;0.70;;
1699;SDS011;847;48.058;7.810;2024-02-04T10:15:51;1.10;;;0.70;;
1699;SDS011;847;48.058;7.810;2024-02-04T10:18:18;1.47;;;1.37;;
1699;SDS011;847;48.058;7.810;2024-02-04T10:20:45;0.93;;;0.93;;
1699;SDS011;847;48.058;7.810;2024-02-04T10:23:11;0.70;;;0.70;;
1699;SDS011;847;48.058;7.810;2024-02-04T10:25:39;0.77;;;0.53;;
1699;SDS011;847;48.058;7.810;2024-02-04T10:28:06;0.70;;;0.60;;
1699;SDS011;847;48.058;7.810;2024-02-04T10:30:34;0.60;;;0.60;;
1699;SDS011;847;48.058;7.810;2024-02-04T10:33:04;1.23;;;0.97;;
1699;SDS011;847;48.058;7.810;2024-02-04T10:35:30;0.50;;;0.50;;
1699;SDS011;847;48.058;7.810;2024-02-04T10:37:57;1.27;;;0.60;;
1699;SDS011;847;48.058;7.810;2024-02-04T10:40:24;0.70;;;0.70;;
1699;SDS011;847;48.058;7.810;2024-02-04T10:42:52;0.63;;;0.63;;
1699;SDS011;847;48.058;7.810;2024-02-04T10:45:23;0.70;;;0.63;;
1699;SDS011;847;48.058;7.810;2024-02-04T10:47:53;0.67;;;0.60;;
1699;SDS011;847;48.058;7.810;2024-02-04T10:50:23;0.50;;;0.50;;
1699;SDS011;847;48.058;7.810;2024-02-04T10:52:51;1.67;;;0.70;;
1699;SDS011;847;48.058;7.810;2024-02-04T10:55:19;1.43;;;0.73;;
1699;SDS011;847;48.058;7.810;2024-02-04T10:57:53;1.47;;;0.87;;
1699;SDS011;847;48.058;7.810;2024-02-04T11:00:21;1.10;;;1.10;;
1699;SDS011;847;48.058;7.810;2024-02-04T11:02:48;4.07;;;2.83;;
1699;SDS011;847;48.058;7.810;2024-02-04T11:05:19;3.73;;;3.37;;
1699;SDS011;847;48.058;7.810;2024-02-04T11:07:46;4.80;;;2.83;;
1699;SDS011;847;48.058;7.810;2024-02-04T11:10:15;1.90;;;1.80;;
1699;SDS011;847;48.058;7.810;2024-02-04T11:12:44;7.90;;;6.97;;
1699;SDS011;847;48.058;7.810;2024-02-04T11:15:13;1.30;;;1.20;;
1699;SDS011;847;48.058;7.810;2024-02-04T11:17:50;0.87;;;0.80;;
1699;SDS011;847;48.058;7.810;2024-02-04T11:20:47;1.17;;;0.80;;
1699;SDS011;847;48.058;7.810;2024-02-04T11:23:31;0.97;;;0.90;;
1699;SDS011;847;48.058;7.810;2024-02-04T11:26:05;1.10;;;0.87;;
1699;SDS011;847;48.058;7.810;2024-02-04T11:28:32;0.70;;;0.60;;
1699;SDS011;847;48.058;7.810;2024-02-04T11:31:01;0.73;;;0.73;;
1699;SDS011;847;48.058;7.810;2024-02-04T11:33:28;2.63;;;2.43;;
1699;SDS011;847;48.058;7.810;2024-02-04T11:35:58;1.40;;;1.30;;
1699;SDS011;847;48.058;7.810;2024-02-04T11:38:29;1.43;;;0.70;;
1699;SDS011;847;48.058;7.810;2024-02-04T11:40:57;0.87;;;0.80;;
1699;SDS011;847;48.058;7.810;2024-02-04T11:43:24;0.70;;;0.70;;
1699;SDS011;847;48.058;7.810;2024-02-04T11:45:51;0.60;;;0.60;;
1699;SDS011;847;48.058;7.810;2024-02-04T11:48:28;1.00;;;0.77;;
1699;SDS011;847;48.058;7.810;2024-02-04T11:50:56;0.80;;;0.80;;
1699;SDS011;847;48.058;7.810;2024-02-04T11:53:24;0.97;;;0.60;;
1699;SDS011;847;48.058;7.810;2024-02-04T11:55:53;1.47;;;0.70;;
1699;SDS011;847;48.058;7.810;2024-02-04T11:58:20;0.80;;;0.50;;
1699;SDS011;847;48.058;7.810;2024-02-04T12:00:48;3.13;;;0.70;;
1699;SDS011;847;48.058;7.810;2024-02-04T12:03:27;0.57;;;0.57;;
1699;SDS011;847;48.058;7.810;2024-02-04T12:05:56;1.40;;;0.77;;
1699;SDS011;847;48.058;7.810;2024-02-04T12:08:24;0.70;;;0.70;;
1699;SDS011;847;48.058;7.810;2024-02-04T12:10:52;1.30;;;1.13;;
1699;SDS011;847;48.058;7.810;2024-02-04T12:13:19;0.73;;;0.73;;
1699;SDS011;847;48.058;7.810;2024-02-04T12:15:46;0.60;;;0.60;;
1699;SDS011;847;48.058;7.810;2024-02-04T12:18:13;0.73;;;0.70;;
1699;SDS011;847;48.058;7.810;2024-02-04T12:20:46;1.03;;;1.00;;
1699;SDS011;847;48.058;7.810;2024-02-04T12:23:17;1.10;;;1.00;;
1699;SDS011;847;48.058;7.810;2024-02-04T12:25:46;0.80;;;0.80;;
1699;SDS011;847;48.058;7.810;2024-02-04T12:28:13;2.30;;;0.90;;
1699;SDS011;847;48.058;7.810;2024-02-04T12:30:40;1.40;;;1.30;;
1699;SDS011;847;48.058;7.810;2024-02-04T12:33:07;0.80;;;0.80;;
1699;SDS011;847;48.058;7.810;2024-02-04T12:35:34;1.50;;;0.87;;
1699;SDS011;847;48.058;7.810;2024-02-04T12:38:02;1.43;;;0.90;;
1699;SDS011;847;48.058;7.810;2024-02-04T12:40:32;0.70;;;0.70;;
1699;SDS011;847;48.058;7.810;2024-02-04T12:42:59;0.87;;;0.87;;
1699;SDS011;847;48.058;7.810;2024-02-04T12:45:27;0.90;;;0.90;;
1699;SDS011;847;48.058;7.810;2024-02-04T12:47:55;1.50;;;0.80;;
1699;SDS011;847;48.058;7.810;2024-02-04T12:50:23;1.00;;;1.00;;
1699;SDS011;847;48.058;7.810;2024-02-04T12:53:01;1.10;;;1.00;;
1699;SDS011;847;48.058;7.810;2024-02-04T12:55:33;1.43;;;1.10;;
1699;SDS011;847;48.058;7.810;2024-02-04T12:58:01;1.60;;;1.20;;
1699;SDS011;847;48.058;7.810;2024-02-04T13:00:29;1.77;;;1.33;;
1699;SDS011;847;48.058;7.810;2024-02-04T13:02:57;1.00;;;0.90;;
1699;SDS011;847;48.058;7.810;2024-02-04T13:05:24;1.00;;;1.00;;
1699;SDS011;847;48.058;7.810;2024-02-04T13:07:52;1.17;;;1.07;;
1699;SDS011;847;48.058;7.810;2024-02-04T13:10:22;1.00;;;0.90;;
1699;SDS011;847;48.058;7.810;2024-02-04T13:12:59;1.37;;;1.27;;
1699;SDS011;847;48.058;7.810;2024-02-04T13:15:27;1.20;;;1.13;;
1699;SDS011;847;48.058;7.810;2024-02-04T13:17:54;1.17;;;1.00;;
1699;SDS011;847;48.058;7.810;2024-02-04T13:20:21;1.63;;;1.30;;
1699;SDS011;847;48.058;7.810;2024-02-04T13:22:48;0.97;;;0.97;;
1699;SDS011;847;48.058;7.810;2024-02-04T13:25:15;1.20;;;1.10;;
1699;SDS011;847;48.058;7.810;2024-02-04T13:27:43;1.30;;;1.20;;
1699;SDS011;847;48.058;7.810;2024-02-04T13:30:10;1.43;;;0.90;;
1699;SDS011;847;48.058;7.810;2024-02-04T13:32:38;1.33;;;1.23;;
1699;SDS011;847;48.058;7.810;2024-02-04T13:35:05;1.03;;;0.93;;
1699;SDS011;847;48.058;7.810;2024-02-04T13:37:34;1.20;;;0.97;;
1699;SDS011;847;48.058;7.810;2024-02-04T13:40:02;1.57;;;1.10;;
1699;SDS011;847;48.058;7.810;2024-02-04T13:42:29;1.13;;;0.97;;
1699;SDS011;847;48.058;7.810;2024-02-04T13:44:58;0.80;;;0.80;;
1699;SDS011;847;48.058;7.810;2024-02-04T13:47:26;1.10;;;0.90;;
1699;SDS011;847;48.058;7.810;2024-02-04T13:49:54;0.90;;;0.90;;
1699;SDS011;847;48.058;7.810;2024-02-04T13:52:21;1.20;;;1.00;;
1699;SDS011;847;48.058;7.810;2024-02-04T13:54:48;1.13;;;1.10;;
1699;SDS011;847;48.058;7.810;2024-02-04T13:57:15;1.00;;;0.90;;
1699;SDS011;847;48.058;7.810;2024-02-04T13:59:42;2.10;;;1.30;;
1699;SDS011;847;48.058;7.810;2024-02-04T14:02:10;5.43;;;4.90;;
1699;SDS011;847;48.058;7.810;2024-02-04T14:04:37;1.67;;;1.50;;
1699;SDS011;847;48.058;7.810;2024-02-04T14:07:04;1.80;;;1.57;;
1699;SDS011;847;48.058;7.810;2024-02-04T14:09:31;4.07;;;3.20;;
1699;SDS011;847;48.058;7.810;2024-02-04T14:11:57;2.17;;;1.30;;
1699;SDS011;847;48.058;7.810;2024-02-04T14:14:24;3.40;;;2.10;;
1699;SDS011;847;48.058;7.810;2024-02-04T14:16:51;3.80;;;3.03;;
1699;SDS011;847;48.058;7.810;2024-02-04T14:19:20;2.30;;;1.83;;
1699;SDS011;847;48.058;7.810;2024-02-04T14:21:47;2.10;;;1.80;;
1699;SDS011;847;48.058;7.810;2024-02-04T14:24:14;1.87;;;1.70;;
1699;SDS011;847;48.058;7.810;2024-02-04T14:26:41;1.70;;;1.60;;
1699;SDS011;847;48.058;7.810;2024-02-04T14:29:09;2.50;;;1.80;;
1699;SDS011;847;48.058;7.810;2024-02-04T14:31:36;1.60;;;1.50;;
1699;SDS011;847;48.058;7.810;2024-02-04T14:34:02;1.27;;;1.13;;
1699;SDS011;847;48.058;7.810;2024-02-04T14:36:31;7.50;;;6.90;;
1699;SDS011;847;48.058;7.810;2024-02-04T14:38:58;5.53;;;5.03;;
1699;SDS011;847;48.058;7.810;2024-02-04T14:41:26;3.07;;;2.80;;
1699;SDS011;847;48.058;7.810;2024-02-04T14:43:53;2.60;;;2.40;;
1699;SDS011;847;48.058;7.810;2024-02-04T14:46:20;3.77;;;3.27;;
1699;SDS011;847;48.058;7.810;2024-02-04T14:48:47;4.20;;;3.43;;
1699;SDS011;847;48.058;7.810;2024-02-04T14:51:16;15.57;;;8.83;;
1699;SDS011;847;48.058;7.810;2024-02-04T14:53:45;2.67;;;2.47;;
1699;SDS011;847;48.058;7.810;2024-02-04T14:56:12;7.80;;;4.83;;
1699;SDS011;847;48.058;7.810;2024-02-04T14:58:39;2.50;;;1.90;;
1699;SDS011;847;48.058;7.810;2024-02-04T15:01:07;3.00;;;2.20;;
1699;SDS011;847;48.058;7.810;2024-02-04T15:03:35;4.70;;;3.93;;
1699;SDS011;847;48.058;7.810;2024-02-04T15:06:02;6.83;;;4.37;;
1699;SDS011;847;48.058;7.810;2024-02-04T15:08:36;6.13;;;4.37;;
1699;SDS011;847;48.058;7.810;2024-02-04T15:11:07;2.77;;;2.57;;
1699;SDS011;847;48.058;7.810;2024-02-04T15:13:37;8.97;;;5.37;;
1699;SDS011;847;48.058;7.810;2024-02-04T15:16:04;3.10;;;2.60;;
1699;SDS011;847;48.058;7.810;2024-02-04T15:18:34;3.77;;;1.93;;
1699;SDS011;847;48.058;7.810;2024-02-04T15:21:01;2.93;;;2.00;;
1699;SDS011;847;48.058;7.810;2024-02-04T15:23:29;3.67;;;3.30;;
1699;SDS011;847;48.058;7.810;2024-02-04T15:25:57;2.20;;;1.67;;
1699;SDS011;847;48.058;7.810;2024-02-04T15:28:26;6.10;;;4.80;;
1699;SDS011;847;48.058;7.810;2024-02-04T15:30:53;2.47;;;1.87;;
1699;SDS011;847;48.058;7.810;2024-02-04T15:33:22;5.70;;;4.93;;